KBYI/BYI METAR and TAF weather

Enter ICAO airport designator
Station Type Date Time Source
KBYI METAR 2023/01/30 10:53 UTC NOAA

KBYI 301053Z AUTO 08003KT 10SM OVC039 M19/M24 A3018 RMK AO2 SLP293 T11891239


Station Type Date Time Source
KBYI Decoded METAR 2023/01/30 10:53 UTC NOAA

BURLEY MUNICIPAL AIRPORT, ID, United States (KBYI) 42-33N 113-46W 1264M
Jan 30, 2023 - 05:53 AM EST / 2023.01.30 1053 UTC
Wind: from the E (080 degrees) at 3 MPH (3 KT):0
Visibility: 10 mile(s):0
Sky conditions: overcast
Temperature: -2.0 F (-18.9 C)
Dew Point: -11.0 F (-23.9 C)
Relative Humidity: 64%
Pressure (altimeter): 30.18 in. Hg (1022 hPa)
ob: KBYI 301053Z AUTO 08003KT 10SM OVC039 M19/M24 A3018 RMK AO2 SLP293 T11891239
cycle: 11

Station Type Date Time Source
KBYI TAF 2023/01/30 06:24 UTC NOAA

TAF KBYI 300521Z 3006/3106 08008KT P6SM SCT050

Example: see airport list